Time;durP1;ratioP1;P1;durP2;ratioP2;P2;SDS_P1;SDS_P2;PMS_P1;PMS_P2;Temp;Humidity;BMP_temperature;BMP_pressure;BME280_temperature;BME280_humidity;BME280_pressure;Samples;Min_cycle;Max_cycle;Signal;HPM_P1;HPM_P2
2022/12/25 00:02:05;;;;;;;15.50;5.00;;;8.00;99.90;;;6.90;100.00;97475.97;5070052;28;20775;-71
2022/12/25 00:04:31;;;;;;;13.82;5.35;;;8.00;99.90;;;6.90;100.00;97479.41;5070987;28;20396;-71
2022/12/25 00:06:58;;;;;;;14.70;4.88;;;8.00;99.90;;;6.91;100.00;97481.03;5070833;28;20414;-71
2022/12/25 00:09:24;;;;;;;9.40;4.05;;;8.00;99.90;;;6.98;100.00;97478.28;5070783;28;20435;-71
2022/12/25 00:11:50;;;;;;;18.10;5.25;;;8.00;99.90;;;6.97;100.00;97481.94;5070097;28;20435;-70
2022/12/25 00:14:16;;;;;;;13.63;5.35;;;8.00;99.90;;;6.96;100.00;97483.75;5070146;28;20407;-71
2022/12/25 00:16:42;;;;;;;11.37;4.70;;;8.00;99.90;;;6.99;100.00;97482.53;5070340;28;20545;-71
2022/12/25 00:19:09;;;;;;;16.63;5.20;;;8.10;99.90;;;6.98;100.00;97489.63;5070685;28;20933;-70
2022/12/25 00:21:35;;;;;;;14.07;5.27;;;8.00;99.90;;;6.96;100.00;97494.28;5069972;28;20742;-71
2022/12/25 00:24:02;;;;;;;16.05;5.40;;;8.00;99.90;;;7.00;100.00;97486.72;5069717;28;20437;-71
2022/12/25 00:26:28;;;;;;;15.77;5.40;;;8.10;99.90;;;6.97;100.00;97482.75;5070511;28;20400;-71
2022/12/25 00:28:56;;;;;;;19.25;5.30;;;8.10;99.90;;;7.00;100.00;97473.56;5070383;28;20400;-71
2022/12/25 00:31:23;;;;;;;16.77;5.10;;;8.10;99.90;;;6.98;100.00;97479.09;5069663;28;20407;-71
2022/12/25 00:33:51;;;;;;;14.10;5.32;;;8.10;99.90;;;6.99;100.00;97479.91;5069787;28;20869;-71
2022/12/25 00:36:23;;;;;;;11.95;5.05;;;8.10;99.90;;;6.98;100.00;97468.56;5069929;28;20417;-71
2022/12/25 00:38:49;;;;;;;13.27;5.27;;;8.00;99.90;;;7.01;100.00;97477.81;5070279;28;20388;-71
2022/12/25 00:44:04;;;;;;;19.58;5.32;;;8.10;99.90;;;7.08;100.00;97472.44;5069568;28;20419;-70
2022/12/25 00:46:30;;;;;;;16.70;5.23;;;8.20;99.90;;;7.06;100.00;97474.53;5070093;28;20395;-70
2022/12/25 00:48:58;;;;;;;13.85;4.95;;;8.10;99.90;;;7.08;100.00;97480.34;5052165;28;20945;-71
2022/12/25 00:51:26;;;;;;;12.77;5.22;;;8.10;99.90;;;7.06;100.00;97483.22;5069218;28;20743;-70
2022/12/25 00:53:51;;;;;;;13.05;5.28;;;8.10;99.90;;;7.07;100.00;97481.41;5069566;28;20820;-70
2022/12/25 00:56:17;;;;;;;14.18;5.45;;;8.10;99.90;;;7.01;100.00;97477.81;5069980;28;20482;-70
2022/12/25 00:58:43;;;;;;;15.38;5.47;;;8.10;99.90;;;7.01;100.00;97483.06;5069909;28;20400;-70
2022/12/25 01:01:10;;;;;;;14.55;5.43;;;8.10;99.90;;;7.01;100.00;97488.34;5069820;28;20400;-70
2022/12/25 01:03:36;;;;;;;17.70;5.25;;;8.00;99.90;;;7.02;100.00;97474.16;5068828;28;20431;-70
2022/12/25 01:06:06;;;;;;;16.52;5.50;;;8.10;99.90;;;7.05;100.00;97478.97;5069791;28;20743;-70
2022/12/25 01:08:37;;;;;;;12.80;5.28;;;8.10;99.90;;;7.08;100.00;97475.88;5051762;28;20408;-70
2022/12/25 01:11:07;;;;;;;12.95;5.20;;;8.10;99.90;;;7.09;100.00;97472.22;5051844;28;20403;-70
2022/12/25 01:13:35;;;;;;;17.05;5.15;;;8.20;99.90;;;7.08;100.00;97469.81;5068893;28;20396;-70
2022/12/25 01:16:05;;;;;;;13.77;5.03;;;8.10;99.90;;;7.09;100.00;97471.41;5069703;28;20413;-70
2022/12/25 01:18:31;;;;;;;11.02;4.65;;;8.10;99.90;;;7.13;100.00;97478.66;5069718;28;20413;-70
2022/12/25 01:20:57;;;;;;;8.15;4.05;;;8.20;99.90;;;7.17;100.00;97474.53;5069707;28;20487;-70
2022/12/25 01:23:23;;;;;;;11.07;4.80;;;8.20;99.90;;;7.19;100.00;97482.22;5068579;28;20907;-70
2022/12/25 01:25:50;;;;;;;16.98;4.80;;;8.30;99.90;;;7.19;100.00;97482.22;5069754;28;20403;-70
2022/12/25 01:28:16;;;;;;;20.45;5.63;;;8.30;99.90;;;7.18;100.00;97483.22;5069709;28;20414;-70
2022/12/25 01:30:47;;;;;;;11.68;4.90;;;8.20;99.90;;;7.18;100.00;97481.41;5069406;28;20395;-70
2022/12/25 01:33:13;;;;;;;14.65;4.75;;;8.20;99.90;;;7.19;100.00;97487.47;5068685;28;20483;-70
2022/12/25 01:35:40;;;;;;;12.27;4.20;;;8.20;99.90;;;7.19;100.00;97498.81;5072232;28;20518;-70
2022/12/25 01:38:06;;;;;;;14.98;4.80;;;8.20;99.90;;;7.19;100.00;97503.25;5073505;28;20402;-70
2022/12/25 01:40:33;;;;;;;15.95;5.45;;;8.20;99.90;;;7.18;100.00;97506.91;5055668;28;20408;-70
2022/12/25 01:43:01;;;;;;;13.15;4.70;;;8.20;99.90;;;7.16;100.00;97512.41;5072704;28;20419;-70
2022/12/25 01:45:36;;;;;;;14.10;5.22;;;8.20;99.90;;;7.13;100.00;97510.25;5055510;28;20729;-70
2022/12/25 01:48:10;;;;;;;11.05;4.28;;;8.20;99.90;;;7.14;100.00;97511.81;5073773;28;20496;-71
2022/12/25 01:50:39;;;;;;;13.43;4.63;;;8.20;99.90;;;7.15;100.00;97510.00;5073538;28;20837;-70
2022/12/25 01:53:06;;;;;;;16.87;4.77;;;8.20;99.90;;;7.17;100.00;97500.06;5072490;28;20897;-70
2022/12/25 01:55:33;;;;;;;15.40;5.50;;;8.20;99.90;;;7.19;100.00;97505.91;5073338;28;20403;-70
2022/12/25 01:58:00;;;;;;;18.08;6.07;;;8.20;99.90;;;7.18;100.00;97501.66;5073270;28;20768;-70
2022/12/25 02:00:26;;;;;;;13.88;6.47;;;8.20;99.90;;;7.16;100.00;97501.88;5072277;28;20392;-70
2022/12/25 02:02:52;;;;;;;16.07;6.53;;;8.20;99.90;;;7.14;100.00;97498.66;5071413;28;20419;-70
2022/12/25 02:05:25;;;;;;;13.75;6.32;;;8.20;99.90;;;7.17;100.00;97492.97;5072182;28;20452;-70
2022/12/25 02:07:52;;;;;;;18.00;6.55;;;8.20;99.90;;;7.15;100.00;97497.63;5072421;28;20425;-70
2022/12/25 02:10:18;;;;;;;18.58;6.30;;;8.20;99.90;;;7.12;100.00;97486.78;5072905;28;20400;-70
2022/12/25 02:12:46;;;;;;;20.00;6.95;;;8.20;99.90;;;7.12;100.00;97484.94;5072003;28;20395;-70
2022/12/25 02:15:19;;;;;;;15.73;6.25;;;8.20;99.90;;;7.14;100.00;97482.88;5072799;28;20406;-70
2022/12/25 02:17:56;;;;;;;18.23;7.05;;;8.20;99.90;;;7.16;100.00;97488.72;5072817;28;20400;-70
2022/12/25 02:21:05;;;;;;;15.10;7.00;;;8.20;99.90;;;7.16;100.00;97493.97;5072621;28;20858;-70
2022/12/25 02:24:14;;;;;;;18.98;7.32;;;8.20;99.90;;;7.09;100.00;97482.75;5025560;28;20469;-70
2022/12/25 02:27:02;;;;;;;18.05;6.95;;;8.10;99.90;;;7.09;100.00;97487.22;5072584;28;20472;-69
2022/12/25 02:29:41;;;;;;;15.65;6.55;;;8.10;99.90;;;7.13;100.00;97475.22;5072639;28;20483;-70
2022/12/25 02:32:14;;;;;;;17.23;7.40;;;8.20;99.90;;;7.12;100.00;97477.06;5072172;28;20396;-69
2022/12/25 02:34:47;;;;;;;20.40;7.30;;;8.10;99.90;;;7.11;100.00;97479.91;5054098;28;20404;-70
2022/12/25 02:37:18;;;;;;;19.02;7.60;;;8.20;99.90;;;7.10;100.00;97484.38;5072698;28;20449;-70
2022/12/25 02:39:58;;;;;;;16.38;7.05;;;8.20;99.90;;;7.07;100.00;97484.03;5072593;28;20400;-70
2022/12/25 03:08:23;;;;;;;14.13;6.20;;;8.30;99.90;;;7.25;100.00;97482.09;5072138;28;20395;-70
2022/12/25 03:13:47;;;;;;;18.50;7.63;;;8.30;99.90;;;7.18;100.00;97464.81;5071443;28;20386;-70
2022/12/25 03:18:59;;;;;;;15.95;7.00;;;8.20;99.90;;;7.17;100.00;97456.09;5071776;28;20960;-70
2022/12/25 03:27:05;;;;;;;21.80;8.38;;;8.20;99.90;;;7.19;100.00;97455.88;5016682;28;20405;-70
2022/12/25 03:32:28;;;;;;;23.23;9.88;;;8.20;99.90;;;7.18;100.00;97452.44;5071025;28;21000;-70
2022/12/25 03:35:22;;;;;;;24.30;9.65;;;8.20;99.90;;;7.19;100.00;97451.41;5084334;22;20500;-69
2022/12/25 04:36:45;;;;;;;28.83;11.95;;;7.90;99.90;;;6.87;100.00;97427.22;5088048;28;20526;-69
2022/12/25 04:39:11;;;;;;;44.28;16.00;;;7.90;99.90;;;6.88;100.00;97422.75;5090552;28;20440;-69
2022/12/25 04:41:38;;;;;;;36.65;14.80;;;8.00;99.90;;;6.86;100.00;97424.81;5089744;28;20404;-69
2022/12/25 04:44:04;;;;;;;47.13;16.25;;;7.90;99.90;;;6.85;100.00;97418.75;5090109;28;20413;-71
2022/12/25 04:46:30;;;;;;;40.40;16.45;;;7.90;99.90;;;6.85;100.00;97416.13;5090371;28;20962;-71
2022/12/25 04:48:56;;;;;;;57.53;19.55;;;7.90;99.90;;;6.82;100.00;97416.59;5090626;28;20398;-71
2022/12/25 04:51:24;;;;;;;52.47;19.13;;;7.90;99.90;;;6.81;100.00;97420.25;5070151;28;20907;-70
2022/12/25 04:53:51;;;;;;;47.22;16.95;;;7.90;99.90;;;6.84;100.00;97421.63;5069621;28;20396;-71
2022/12/25 04:56:18;;;;;;;48.28;16.40;;;7.90;99.90;;;6.86;100.00;97406.41;5070004;28;20419;-70
2022/12/25 04:58:46;;;;;;;37.93;15.90;;;7.90;99.90;;;6.87;100.00;97402.75;5070092;28;20399;-71
2022/12/25 05:01:12;;;;;;;43.47;16.17;;;7.90;99.90;;;6.89;100.00;97404.13;5069924;28;20458;-71
2022/12/25 05:03:38;;;;;;;46.45;16.92;;;8.00;99.90;;;6.91;100.00;97406.53;5051524;28;20420;-71
2022/12/25 05:06:06;;;;;;;49.70;17.15;;;8.00;99.90;;;6.91;100.00;97404.72;5069962;28;20404;-70
2022/12/25 05:08:34;;;;;;;42.33;15.77;;;8.00;99.90;;;6.91;100.00;97402.06;5069526;28;20454;-71
2022/12/25 05:11:04;;;;;;;40.20;13.68;;;8.00;99.90;;;6.93;100.00;97402.63;5069309;28;20460;-71
2022/12/25 05:13:31;;;;;;;45.58;15.95;;;8.00;99.90;;;6.90;100.00;97394.41;5069153;28;20502;-71
2022/12/25 05:15:58;;;;;;;43.83;14.15;;;8.00;99.90;;;6.90;100.00;97389.94;5069847;28;20950;-71
2022/12/25 05:18:24;;;;;;;33.60;12.93;;;8.00;99.90;;;6.91;100.00;97390.75;5069886;28;20398;-71
2022/12/25 05:20:52;;;;;;;37.45;13.57;;;8.00;99.90;;;6.90;100.00;97391.78;5069738;28;21133;-71
2022/12/25 05:23:18;;;;;;;44.97;14.40;;;8.00;99.90;;;6.89;100.00;97395.44;5068916;28;20540;-69
2022/12/25 05:25:44;;;;;;;36.92;13.27;;;8.00;99.90;;;6.87;100.00;97393.03;5069664;28;20889;-71
2022/12/25 05:28:09;;;;;;;50.17;15.75;;;8.00;99.90;;;6.85;100.00;97392.44;5069766;28;20443;-71
2022/12/25 05:30:35;;;;;;;41.53;14.00;;;7.90;99.90;;;6.85;100.00;97397.69;5068894;28;20416;-71
2022/12/25 05:33:03;;;;;;;47.57;14.73;;;7.90;99.90;;;6.86;100.00;97398.50;5068705;28;20480;-71
2022/12/25 05:35:29;;;;;;;40.43;13.50;;;7.90;99.90;;;6.85;100.00;97392.44;5068989;28;21155;-71
2022/12/25 05:37:55;;;;;;;49.75;14.40;;;7.90;99.90;;;6.83;100.00;97396.34;5069460;28;20404;-71
2022/12/25 05:40:21;;;;;;;31.08;11.30;;;7.90;99.90;;;6.82;100.00;97395.53;5068950;28;20416;-71
2022/12/25 05:43:02;;;;;;;36.10;11.80;;;7.90;99.90;;;6.85;100.00;97397.69;5068105;28;20404;-71
2022/12/25 05:45:28;;;;;;;35.83;12.57;;;7.90;99.90;;;6.84;100.00;97385.56;5064425;28;20438;-70
2022/12/25 05:47:54;;;;;;;30.47;10.50;;;7.90;99.90;;;6.85;100.00;97387.19;5069351;28;20400;-70
2022/12/25 05:50:21;;;;;;;28.40;10.75;;;7.90;99.90;;;6.83;100.00;97381.34;5069120;28;20396;-70
2022/12/25 05:52:47;;;;;;;24.58;9.52;;;7.90;99.90;;;6.82;100.00;97366.59;5068523;28;20548;-70
2022/12/25 05:55:13;;;;;;;25.52;9.68;;;7.90;99.90;;;6.83;100.00;97356.88;5069245;28;20524;-70
2022/12/25 05:57:38;;;;;;;21.60;8.98;;;7.90;99.90;;;6.86;100.00;97369.56;5069258;28;20486;-71
2022/12/25 06:00:07;;;;;;;21.33;8.15;;;8.00;99.90;;;6.87;100.00;97368.53;5069539;28;20406;-70
2022/12/25 06:02:34;;;;;;;21.38;7.57;;;7.90;99.90;;;6.87;100.00;97364.06;5050544;28;20404;-71
2022/12/25 06:05:00;;;;;;;15.10;6.60;;;8.00;99.90;;;6.88;100.00;97346.47;5068755;28;20476;-71
2022/12/25 06:07:27;;;;;;;13.70;6.22;;;8.00;99.90;;;6.90;100.00;97360.19;5069410;28;20478;-71
2022/12/25 06:09:53;;;;;;;25.17;7.45;;;8.00;99.90;;;6.89;100.00;97356.75;5068362;28;20403;-71
2022/12/25 06:12:19;;;;;;;16.90;6.38;;;8.00;99.90;;;6.87;100.00;97350.13;5067739;28;20403;-70
2022/12/25 06:14:45;;;;;;;15.43;6.43;;;8.00;99.90;;;6.90;100.00;97360.19;5068321;28;20482;-71
2022/12/25 06:17:11;;;;;;;16.47;5.70;;;8.00;99.90;;;6.92;100.00;97350.22;5068429;28;20411;-71
2022/12/25 06:19:37;;;;;;;13.73;5.63;;;8.00;99.90;;;6.90;100.00;97344.41;5051143;28;20408;-71
2022/12/25 06:22:03;;;;;;;12.75;4.80;;;8.00;99.90;;;6.88;100.00;97344.63;5071407;28;20407;-71
2022/12/25 06:24:30;;;;;;;12.40;4.57;;;8.00;99.90;;;6.86;100.00;97338.78;5072482;28;20422;-71
2022/12/25 06:26:56;;;;;;;8.70;4.00;;;7.90;99.90;;;6.91;100.00;97346.03;5072881;28;20399;-70
2022/12/25 06:29:22;;;;;;;13.02;4.47;;;7.90;99.90;;;6.90;100.00;97341.78;5072925;28;20494;-70
2022/12/25 06:31:48;;;;;;;8.32;3.95;;;7.90;99.90;;;6.91;100.00;97340.75;5072198;28;20400;-71
2022/12/25 06:34:15;;;;;;;10.20;4.07;;;8.00;99.90;;;6.93;100.00;97336.03;5072133;28;20930;-70
2022/12/25 06:36:41;;;;;;;8.30;3.30;;;8.00;99.90;;;6.93;100.00;97334.22;5072699;28;20408;-71
2022/12/25 06:39:08;;;;;;;7.53;3.72;;;8.00;99.90;;;6.91;100.00;97338.94;5072654;28;20407;-71
2022/12/25 06:41:35;;;;;;;11.07;4.00;;;8.00;99.90;;;6.90;100.00;97347.84;5071620;28;20404;-70
2022/12/25 06:44:01;;;;;;;6.13;3.33;;;7.90;99.90;;;6.92;100.00;97343.13;5072152;28;20422;-71
2022/12/25 06:46:28;;;;;;;6.47;3.60;;;8.00;99.90;;;6.96;100.00;97343.50;5072483;28;20402;-70
2022/12/25 06:48:57;;;;;;;5.95;3.35;;;8.00;99.90;;;7.00;100.00;97347.25;5072497;28;20553;-70
2022/12/25 06:51:25;;;;;;;6.47;2.95;;;8.10;99.90;;;6.99;100.00;97354.34;5071851;28;20404;-71
2022/12/25 06:53:52;;;;;;;5.70;3.50;;;8.10;99.90;;;6.97;100.00;97353.78;5072063;28;20487;-71
2022/12/25 06:56:21;;;;;;;11.23;3.85;;;8.10;99.90;;;6.97;100.00;97363.53;5072427;28;20414;-71
2022/12/25 06:58:51;;;;;;;8.77;3.30;;;8.00;99.90;;;6.98;100.00;97359.88;5072344;28;20507;-71
2022/12/25 07:01:22;;;;;;;7.13;3.45;;;8.00;99.90;;;7.01;100.00;97354.13;5071822;28;20485;-71
2022/12/25 07:03:51;;;;;;;9.00;3.67;;;8.00;99.90;;;6.99;100.00;97353.56;5071810;28;21148;-70
2022/12/25 07:06:17;;;;;;;6.75;3.20;;;8.10;99.90;;;7.02;100.00;97352.28;5072198;28;20783;-70
2022/12/25 07:08:43;;;;;;;6.77;3.30;;;8.10;99.90;;;7.04;100.00;97353.69;5072142;28;20411;-71
2022/12/25 07:11:09;;;;;;;6.60;3.20;;;8.10;99.90;;;7.06;100.00;97363.97;5071935;28;20391;-70
2022/12/25 07:13:35;;;;;;;7.28;3.05;;;8.10;99.90;;;7.07;100.00;97361.09;5071127;28;20831;-70
2022/12/25 07:16:06;;;;;;;7.97;3.20;;;8.10;99.90;;;7.08;100.00;97367.97;5072033;28;20439;-71
2022/12/25 07:18:33;;;;;;;6.88;3.20;;;8.10;99.90;;;7.09;100.00;97366.13;5071997;28;20878;-71
2022/12/25 07:21:05;;;;;;;9.38;2.95;;;8.10;99.90;;;7.07;100.00;97355.84;5071850;28;20761;-71
2022/12/25 07:23:30;;;;;;;6.55;2.97;;;8.20;99.90;;;7.09;100.00;97359.03;5071009;28;20424;-71
2022/12/25 07:25:58;;;;;;;8.90;2.90;;;8.10;99.90;;;7.09;100.00;97353.78;5071773;28;20435;-71
2022/12/25 07:28:25;;;;;;;7.45;3.13;;;8.10;99.90;;;7.13;100.00;97348.88;5071740;28;20483;-70
2022/12/25 07:30:51;;;;;;;6.57;3.00;;;8.20;99.90;;;7.11;100.00;97349.09;5053709;28;20912;-71
2022/12/25 07:33:19;;;;;;;7.03;3.13;;;8.20;99.90;;;7.10;100.00;97342.22;5069961;28;20498;-71
2022/12/25 07:35:45;;;;;;;9.00;3.20;;;8.20;99.90;;;7.06;100.00;97343.72;5071640;28;20758;-71
2022/12/25 07:38:11;;;;;;;7.55;3.13;;;8.10;99.90;;;6.99;100.00;97340.41;5071590;28;20414;-70
2022/12/25 07:40:37;;;;;;;6.80;3.40;;;8.00;99.90;;;6.95;100.00;97339.25;5071540;28;20404;-71
2022/12/25 07:43:03;;;;;;;8.88;3.95;;;8.00;99.90;;;6.99;100.00;97319.38;5070516;28;20499;-71
2022/12/25 07:45:29;;;;;;;12.30;4.40;;;8.00;99.90;;;6.96;100.00;97314.53;5053764;28;20762;-71
2022/12/25 07:47:55;;;;;;;9.98;4.63;;;8.00;99.90;;;6.93;100.00;97309.72;5071370;28;20498;-70
2022/12/25 07:50:22;;;;;;;7.88;4.15;;;8.00;99.90;;;7.00;100.00;97299.88;5071347;28;20478;-71
2022/12/25 07:52:48;;;;;;;10.55;4.05;;;8.00;99.90;;;7.03;100.00;97304.69;5070529;28;20410;-69
2022/12/25 07:55:14;;;;;;;10.02;3.80;;;8.10;99.90;;;7.04;100.00;97308.94;5070902;28;20396;-75
2022/12/25 07:57:40;;;;;;;9.35;3.70;;;8.10;99.90;;;7.10;100.00;97315.09;5066251;28;20502;-74
2022/12/25 08:00:08;;;;;;;7.97;3.60;;;8.10;99.90;;;7.14;100.00;97311.00;5069769;28;20482;-74
2022/12/25 08:02:34;;;;;;;7.05;3.40;;;8.20;99.90;;;7.09;100.00;97319.56;5057002;28;20421;-74
2022/12/25 08:05:00;;;;;;;6.77;3.10;;;8.20;99.90;;;7.07;100.00;97331.38;5068596;28;20411;-71
2022/12/25 08:07:27;;;;;;;9.32;3.40;;;8.10;99.90;;;7.01;100.00;97333.06;5063136;28;20447;-70
2022/12/25 08:09:53;;;;;;;5.13;3.00;;;8.10;99.90;;;6.99;100.00;97340.41;5065830;28;20413;-71
2022/12/25 08:12:19;;;;;;;7.27;3.00;;;8.00;99.90;;;6.92;100.00;97334.44;5061067;28;20916;-72
2022/12/25 08:14:44;;;;;;;8.32;3.28;;;8.00;99.90;;;6.86;100.00;97354.56;5068155;28;20526;-70
2022/12/25 08:17:10;;;;;;;7.57;2.95;;;7.90;99.90;;;6.87;100.00;97344.84;5058607;28;20453;-71
2022/12/25 08:19:36;;;;;;;7.78;3.17;;;8.00;99.90;;;6.87;100.00;97348.28;5057627;28;20420;-71
2022/12/25 08:22:02;;;;;;;7.97;3.33;;;7.90;99.90;;;6.87;100.00;97344.84;5062972;28;20419;-71
2022/12/25 08:24:29;;;;;;;7.28;3.10;;;8.00;99.90;;;6.86;100.00;97345.88;5067058;28;20478;-71
2022/12/25 08:26:55;;;;;;;12.55;3.72;;;7.90;99.90;;;6.87;100.00;97350.91;5065302;28;20422;-71
2022/12/25 08:29:21;;;;;;;9.63;3.80;;;8.00;99.90;;;6.89;100.00;97343.59;5050995;28;20416;-71
2022/12/25 08:31:47;;;;;;;7.00;3.50;;;8.00;99.90;;;6.96;100.00;97344.28;5063674;28;20466;-71
2022/12/25 08:34:13;;;;;;;5.97;3.20;;;8.00;99.90;;;7.04;100.00;97347.63;5069517;28;20403;-72
2022/12/25 08:36:40;;;;;;;9.10;3.88;;;8.10;99.90;;;7.06;100.00;97349.00;5060638;28;20412;-71
2022/12/25 08:39:06;;;;;;;9.00;3.35;;;8.10;99.90;;;7.09;100.00;97351.16;5063436;28;20407;-72
2022/12/25 08:41:37;;;;;;;12.33;3.40;;;8.10;99.90;;;7.07;100.00;97349.78;5053038;28;20806;-71
2022/12/25 08:44:03;;;;;;;8.00;3.58;;;8.10;99.90;;;7.07;100.00;97352.44;5068552;28;20422;-72
2022/12/25 08:46:29;;;;;;;8.55;3.67;;;8.10;99.90;;;7.05;100.00;97346.59;5069680;28;20494;-70
2022/12/25 08:48:55;;;;;;;7.93;3.72;;;8.10;99.90;;;7.02;100.00;97345.19;5066271;28;20552;-72
2022/12/25 08:51:23;;;;;;;7.88;3.67;;;8.10;99.90;;;7.03;100.00;97346.81;5069245;28;20400;-71
2022/12/25 08:53:52;;;;;;;6.77;3.17;;;8.10;99.90;;;7.00;100.00;97344.63;5061770;28;20415;-72
2022/12/25 08:56:18;;;;;;;8.20;3.70;;;8.10;99.90;;;6.97;100.00;97343.28;5061450;28;20820;-70
2022/12/25 08:58:46;;;;;;;5.63;3.10;;;8.00;99.90;;;6.98;100.00;97339.63;5065989;28;20392;-71
2022/12/25 09:01:12;;;;;;;11.30;3.50;;;8.00;99.90;;;6.96;100.00;97335.59;5066378;28;20442;-71
2022/12/25 09:03:38;;;;;;;12.45;3.95;;;8.00;99.90;;;6.91;100.00;97322.34;5067614;28;20412;-71
2022/12/25 09:06:07;;;;;;;9.83;4.13;;;8.00;99.90;;;6.88;100.00;97307.00;5063827;28;20515;-71
2022/12/25 09:08:34;;;;;;;11.27;4.00;;;8.00;99.90;;;6.89;100.00;97296.25;5065521;28;20410;-70
2022/12/25 09:11:02;;;;;;;8.70;3.93;;;7.90;99.90;;;6.90;100.00;97292.59;5066065;28;20396;-71
2022/12/25 09:13:28;;;;;;;7.72;3.50;;;8.00;99.90;;;6.94;100.00;97285.03;5067937;28;20408;-70
2022/12/25 09:15:55;;;;;;;10.27;4.40;;;8.00;99.90;;;6.97;100.00;97284.56;5069430;28;20904;-70
2022/12/25 09:18:21;;;;;;;14.07;5.65;;;8.00;99.90;;;7.03;100.00;97285.47;5069535;28;20448;-71
2022/12/25 09:20:55;;;;;;;9.02;4.28;;;8.10;99.90;;;7.07;100.00;97299.78;5069639;28;20400;-71
2022/12/25 09:23:21;;;;;;;9.57;3.95;;;8.10;99.90;;;7.13;100.00;97301.50;5068892;28;20781;-70
2022/12/25 09:25:47;;;;;;;11.53;4.47;;;8.20;99.90;;;7.11;100.00;97306.97;5069579;28;20400;-70
2022/12/25 09:28:13;;;;;;;10.82;3.70;;;8.20;99.90;;;7.11;100.00;97301.72;5069792;28;20408;-70
2022/12/25 09:30:38;;;;;;;9.35;4.32;;;8.20;99.90;;;7.18;100.00;97309.50;5068332;28;20408;-70
2022/12/25 09:33:06;;;;;;;10.70;5.18;;;8.20;99.90;;;7.21;100.00;97309.84;5068932;28;20834;-72
2022/12/25 09:35:32;;;;;;;7.60;3.50;;;8.20;99.90;;;7.18;100.00;97312.13;5081359;22;20462;-72
2022/12/25 09:37:57;;;;;;;8.45;4.00;;;8.20;99.90;;;7.22;100.00;97311.41;5056245;28;20425;-73
2022/12/25 09:40:27;;;;;;;10.83;4.00;;;8.20;99.90;;;7.18;100.00;97310.28;5049481;28;20487;-73
2022/12/25 09:42:55;;;;;;;9.25;4.28;;;8.20;99.90;;;7.18;100.00;97312.13;5048665;28;20400;-73
2022/12/25 09:45:27;;;;;;;13.82;5.53;;;8.20;99.90;;;7.21;100.00;97309.84;5021759;28;20473;-70
2022/12/25 09:47:56;;;;;;;9.80;4.93;;;8.20;99.90;;;7.26;100.00;97311.78;5029522;28;20407;-70
2022/12/25 09:50:35;;;;;;;8.23;4.43;;;8.30;99.90;;;7.29;100.00;97314.72;5029384;28;20947;-70
2022/12/25 09:53:06;;;;;;;10.07;4.22;;;8.30;99.90;;;7.31;100.00;97303.97;5028740;28;20410;-70
2022/12/25 09:55:39;;;;;;;8.73;4.35;;;8.30;99.90;;;7.38;100.00;97305.44;5030140;28;20510;-70
2022/12/25 09:58:13;;;;;;;13.48;5.50;;;8.40;99.90;;;7.43;100.00;97307.41;5033741;28;20403;-71
2022/12/25 10:00:45;;;;;;;10.35;6.40;;;8.40;99.90;;;7.60;100.00;97310.88;5053059;28;20410;-71
2022/12/25 10:03:41;;;;;;;13.18;6.25;;;8.60;99.90;;;7.87;100.00;97305.09;5052182;28;20386;-70
2022/12/25 10:06:16;;;;;;;8.15;3.42;;;8.80;99.90;;;8.39;100.00;97295.22;5053176;28;20429;-71
2022/12/25 10:09:18;;;;;;;3.92;2.40;;;9.30;99.90;;;9.31;100.00;97304.25;5053707;28;20425;-71
2022/12/25 10:12:03;;;;;;;5.85;2.70;;;10.10;99.90;;;10.38;100.00;97292.19;5052540;28;20927;-71
2022/12/25 10:14:41;;;;;;;3.53;2.30;;;11.20;99.90;;;11.15;100.00;97278.44;5052754;28;20439;-71
2022/12/25 10:17:25;;;;;;;3.38;2.13;;;12.00;99.90;;;11.91;100.00;97268.94;5052882;28;20428;-71
2022/12/25 10:20:04;;;;;;;2.83;1.63;;;12.80;99.90;;;12.97;100.00;97270.03;5053120;28;20425;-71
2022/12/25 10:22:36;;;;;;;3.80;2.17;;;13.60;99.90;;;13.04;100.00;97268.69;5048103;28;20994;-71
2022/12/25 10:25:08;;;;;;;3.08;1.85;;;14.20;99.90;;;14.07;100.00;97264.56;5050413;28;20427;-69
2022/12/25 10:27:38;;;;;;;4.17;1.70;;;14.90;99.90;;;14.18;100.00;97266.88;5052426;28;20428;-68
2022/12/25 10:30:14;;;;;;;2.78;2.00;;;15.20;99.90;;;14.35;100.00;97263.84;5052828;28;20416;-68
2022/12/25 10:32:41;;;;;;;3.17;1.92;;;15.50;99.90;;;14.49;100.00;97253.38;5049658;28;20394;-69
2022/12/25 10:35:11;;;;;;;3.58;1.80;;;15.60;99.90;;;14.37;100.00;97252.91;5049520;28;20821;-69
2022/12/25 10:37:39;;;;;;;3.17;1.63;;;15.40;99.90;;;14.01;100.00;97239.84;5053254;28;20409;-69
2022/12/25 10:40:27;;;;;;;2.22;1.48;;;14.90;99.90;;;13.77;100.00;97230.94;5051560;28;20409;-69
2022/12/25 10:43:01;;;;;;;4.32;1.85;;;14.80;99.90;;;13.56;100.00;97228.41;5050469;28;20405;-68
2022/12/25 10:45:27;;;;;;;3.05;1.55;;;14.50;99.90;;;13.77;100.00;97228.28;5052475;28;20421;-69
2022/12/25 10:48:03;;;;;;;4.20;2.10;;;14.60;99.90;;;13.98;100.00;97223.66;5052173;28;20463;-69
2022/12/25 10:50:30;;;;;;;2.53;1.85;;;15.00;99.90;;;14.29;100.00;97217.00;5051747;28;20464;-68
2022/12/25 10:53:01;;;;;;;3.70;2.08;;;15.20;99.90;;;14.27;100.00;97214.66;5049446;28;20420;-68
2022/12/25 10:55:27;;;;;;;2.85;1.50;;;15.30;99.90;;;14.36;100.00;97219.38;5051669;28;20825;-69
2022/12/25 10:57:53;;;;;;;2.58;1.77;;;15.40;99.90;;;14.44;100.00;97216.13;5052405;28;20401;-69
2022/12/25 11:00:22;;;;;;;2.92;1.67;;;15.50;99.90;;;14.44;100.00;97211.59;5052212;28;20401;-69
2022/12/25 11:02:48;;;;;;;3.10;1.77;;;15.40;99.90;;;14.36;100.00;97206.81;5049366;28;20911;-69
2022/12/25 11:05:25;;;;;;;2.03;1.50;;;15.40;99.90;;;14.30;100.00;97206.09;5050798;28;20464;-70
2022/12/25 11:07:54;;;;;;;2.40;1.67;;;15.20;99.90;;;13.98;100.00;97199.69;5043079;28;20413;-69
2022/12/25 11:10:27;;;;;;;4.43;2.05;;;14.90;99.90;;;13.45;100.00;97200.28;5051573;28;20774;-70
2022/12/25 11:12:53;;;;;;;2.42;1.70;;;14.40;99.90;;;13.33;100.00;97198.97;5051038;28;21018;-70
2022/12/25 11:15:35;;;;;;;2.30;1.60;;;14.20;99.90;;;13.42;100.00;97198.16;5051430;28;20412;-70
2022/12/25 11:18:01;;;;;;;2.53;1.70;;;14.30;99.90;;;13.01;100.00;97197.47;5051940;28;20427;-69
2022/12/25 11:20:27;;;;;;;2.53;1.58;;;14.00;99.90;;;13.04;100.00;97198.81;5051814;28;20416;-70
2022/12/25 11:22:53;;;;;;;2.88;1.65;;;13.90;99.90;;;13.52;100.00;97203.44;5049403;28;20910;-70
2022/12/25 11:25:24;;;;;;;3.53;1.85;;;14.30;99.90;;;13.71;100.00;97200.13;5050414;28;20417;-70
2022/12/25 11:27:57;;;;;;;2.88;1.83;;;14.60;99.90;;;13.65;100.00;97190.59;5044078;28;20416;-69
2022/12/25 11:30:23;;;;;;;5.32;1.63;;;14.50;99.90;;;13.64;100.00;97178.34;5050356;28;20405;-70
2022/12/25 11:32:54;;;;;;;3.20;1.80;;;14.50;99.90;;;13.72;100.00;97180.44;5050993;28;20397;-69
2022/12/25 11:35:24;;;;;;;2.60;1.60;;;14.60;99.90;;;14.09;100.00;97177.25;5051467;28;20468;-69
2022/12/25 11:37:51;;;;;;;6.07;1.70;;;14.90;99.90;;;13.99;100.00;97174.66;5051650;28;20451;-69
2022/12/25 11:40:23;;;;;;;2.47;1.67;;;14.90;99.90;;;13.96;100.00;97178.69;5051355;28;20397;-69
2022/12/25 11:42:53;;;;;;;4.53;1.80;;;14.90;99.90;;;14.11;100.00;97175.09;5050045;28;20400;-69
2022/12/25 11:45:26;;;;;;;3.70;1.60;;;15.00;99.90;;;14.26;100.00;97164.34;5049034;28;20482;-69
2022/12/25 11:47:56;;;;;;;3.95;1.85;;;15.10;99.90;;;14.56;100.00;97165.94;5043989;28;20451;-70
2022/12/25 11:50:27;;;;;;;3.15;1.75;;;15.40;99.90;;;14.90;100.00;97161.31;5051085;28;20398;-70
2022/12/25 11:52:55;;;;;;;4.72;2.10;;;15.70;99.90;;;14.81;100.00;97165.66;5050139;28;20914;-70
2022/12/25 11:55:34;;;;;;;4.03;1.48;;;15.70;99.90;;;15.06;100.00;97159.25;5050878;28;20916;-70
2022/12/25 11:58:07;;;;;;;2.63;1.80;;;16.00;99.90;;;14.98;100.00;97154.56;5051208;28;20409;-69
2022/12/25 12:00:35;;;;;;;3.05;1.90;;;15.90;99.90;;;14.93;100.00;97155.44;5050915;28;20957;-69
2022/12/25 12:03:10;;;;;;;6.18;1.88;;;15.80;99.90;;;14.86;100.00;97149.66;5050164;28;20408;-68
2022/12/25 12:05:44;;;;;;;3.55;1.98;;;15.80;99.90;;;14.91;100.00;97141.56;5050793;28;20421;-70
2022/12/25 12:08:13;;;;;;;2.83;2.00;;;16.00;99.90;;;15.04;100.00;97135.56;5051178;28;20960;-70